createdAt,value
2017-03-07T00:00:40.207Z,944.30
2017-03-07T00:01:40.275Z,944.31
2017-03-07T00:02:49.782Z,944.35
2017-03-07T00:03:39.187Z,944.33
2017-03-07T00:04:51.186Z,944.29
2017-03-07T00:05:46.190Z,944.38
2017-03-07T00:06:40.332Z,944.37
2017-03-07T00:07:45.029Z,944.40
2017-03-07T00:08:40.969Z,944.41
2017-03-07T00:09:41.314Z,944.44
2017-03-07T00:10:40.172Z,944.41
2017-03-07T00:11:45.269Z,944.48
2017-03-07T00:12:49.118Z,944.49
2017-03-07T00:13:34.578Z,944.50
2017-03-07T00:14:45.010Z,944.56
2017-03-07T00:15:45.698Z,944.53
2017-03-07T00:16:44.118Z,944.58
2017-03-07T00:17:49.308Z,944.51
2017-03-07T00:18:40.155Z,944.52
2017-03-07T00:19:45.636Z,944.57
2017-03-07T00:20:49.807Z,944.57
2017-03-07T00:21:39.535Z,944.61
2017-03-07T00:22:39.881Z,944.55
2017-03-07T00:23:39.883Z,944.55
2017-03-07T00:24:40.817Z,944.58
2017-03-07T00:25:45.736Z,944.58
2017-03-07T00:26:49.833Z,944.60
2017-03-07T00:27:40.675Z,944.64
2017-03-07T00:28:50.001Z,944.68
2017-03-07T00:29:39.297Z,944.71
2017-03-07T00:30:54.640Z,944.70
2017-03-07T00:31:49.062Z,944.67
2017-03-07T00:32:40.928Z,944.69
2017-03-07T00:33:54.337Z,944.69
2017-03-07T00:34:44.311Z,944.67
2017-03-07T00:35:44.606Z,944.71
2017-03-07T00:36:44.213Z,944.70
2017-03-07T00:37:54.698Z,944.70
2017-03-07T00:38:39.481Z,944.74
2017-03-07T00:39:38.659Z,944.77
2017-03-07T00:40:48.860Z,944.74
2017-03-07T00:41:40.867Z,944.76
2017-03-07T00:42:41.071Z,944.80
2017-03-07T00:43:50.878Z,944.78
2017-03-07T00:44:40.669Z,944.79
2017-03-07T00:45:39.372Z,944.87
2017-03-07T00:46:44.659Z,944.88
2017-03-07T00:47:46.804Z,944.88
2017-03-07T00:48:38.214Z,944.86
2017-03-07T00:49:48.662Z,944.95
2017-03-07T00:50:48.521Z,944.93
2017-03-07T00:51:49.533Z,944.95
2017-03-07T00:52:44.503Z,944.96
2017-03-07T00:53:45.202Z,944.95
2017-03-07T00:54:44.800Z,944.93
2017-03-07T00:55:40.435Z,944.94
2017-03-07T00:56:34.798Z,944.93
2017-03-07T00:57:45.232Z,944.94
2017-03-07T00:58:37.476Z,944.95
2017-03-07T00:59:45.634Z,944.97
2017-03-07T01:00:39.467Z,944.98
2017-03-07T01:01:59.905Z,944.96
2017-03-07T01:02:48.626Z,944.99
2017-03-07T01:03:38.631Z,944.93
2017-03-07T01:04:54.343Z,944.93
2017-03-07T01:05:48.266Z,944.94
2017-03-07T01:06:49.586Z,944.92
2017-03-07T01:08:11.141Z,944.92
2017-03-07T01:09:01.076Z,944.90
2017-03-07T01:09:54.594Z,944.88
2017-03-07T01:10:59.934Z,944.91
2017-03-07T01:11:48.598Z,944.95
2017-03-07T01:13:05.357Z,944.91
2017-03-07T01:13:53.653Z,944.97
2017-03-07T01:14:54.477Z,944.96
2017-03-07T01:16:00.228Z,944.93
2017-03-07T01:16:53.289Z,944.91
2017-03-07T01:17:52.240Z,944.94
2017-03-07T01:18:44.041Z,944.99
2017-03-07T01:20:10.672Z,944.95
2017-03-07T01:20:49.641Z,945.00
2017-03-07T01:21:44.944Z,945.02
2017-03-07T01:22:49.838Z,945.05
2017-03-07T01:23:56.875Z,945.09
2017-03-07T01:25:00.684Z,945.06
2017-03-07T01:25:57.903Z,945.04
2017-03-07T01:26:54.582Z,945.04
2017-03-07T01:27:45.537Z,945.06
2017-03-07T01:28:55.055Z,945.05
2017-03-07T01:29:55.869Z,945.08
2017-03-07T01:30:49.227Z,945.02
2017-03-07T01:31:49.323Z,945.01
2017-03-07T01:32:54.067Z,945.00
2017-03-07T01:33:40.468Z,945.04
2017-03-07T01:34:41.058Z,945.07
2017-03-07T01:35:53.203Z,945.10
2017-03-07T01:36:52.625Z,945.09
2017-03-07T01:37:55.055Z,945.10
2017-03-07T01:38:55.055Z,945.10
2017-03-07T01:39:59.020Z,945.12
2017-03-07T01:40:54.141Z,945.10
2017-03-07T01:41:41.049Z,945.06
2017-03-07T01:42:57.520Z,945.06
2017-03-07T01:43:59.059Z,945.03
2017-03-07T01:45:03.105Z,945.09
2017-03-07T01:45:51.708Z,945.12
2017-03-07T01:46:58.324Z,945.11
2017-03-07T01:47:52.606Z,945.11
2017-03-07T01:48:51.323Z,945.17
2017-03-07T01:49:54.077Z,945.07
2017-03-07T01:50:44.663Z,945.10
2017-03-07T01:51:47.635Z,945.13
2017-03-07T01:52:48.619Z,945.14
2017-03-07T01:53:55.461Z,945.16
2017-03-07T01:54:50.803Z,945.25
2017-03-07T01:55:51.287Z,945.18
2017-03-07T01:56:48.227Z,945.23
2017-03-07T01:57:57.050Z,945.32
2017-03-07T01:58:46.829Z,945.17
2017-03-07T01:59:50.290Z,945.21
2017-03-07T02:00:46.802Z,945.22
2017-03-07T02:01:40.016Z,945.22
2017-03-07T02:02:52.705Z,945.27
2017-03-07T02:03:58.206Z,945.30
2017-03-07T02:05:04.618Z,945.34
2017-03-07T02:05:58.097Z,945.37
2017-03-07T02:06:52.648Z,945.41
2017-03-07T02:08:01.585Z,945.36
2017-03-07T02:08:49.753Z,945.36
2017-03-07T02:09:38.129Z,945.43
2017-03-07T02:10:59.344Z,945.38
2017-03-07T02:11:54.100Z,945.45
2017-03-07T02:12:40.859Z,945.44
2017-03-07T02:13:50.408Z,945.36
2017-03-07T02:14:49.777Z,945.39
2017-03-07T02:15:53.419Z,945.38
2017-03-07T02:16:54.177Z,945.36
2017-03-07T02:17:45.859Z,945.34
2017-03-07T02:18:55.186Z,945.42
2017-03-07T02:20:03.420Z,945.34
2017-03-07T02:20:49.788Z,945.34
2017-03-07T02:21:44.593Z,945.35
2017-03-07T02:22:43.169Z,945.38
2017-03-07T02:23:40.735Z,945.37
2017-03-07T02:24:34.655Z,945.27
2017-03-07T02:25:45.117Z,945.36
2017-03-07T02:26:40.496Z,945.22
2017-03-07T02:27:58.151Z,945.36
2017-03-07T02:28:48.634Z,945.39
2017-03-07T02:29:39.393Z,945.41
2017-03-07T02:30:45.028Z,945.32
2017-03-07T02:31:53.408Z,945.40
2017-03-07T02:32:38.898Z,945.42
2017-03-07T02:33:44.295Z,945.44
2017-03-07T02:34:49.180Z,945.44
2017-03-07T02:35:48.406Z,945.44
2017-03-07T02:36:50.604Z,945.42
2017-03-07T02:37:39.994Z,945.45
2017-03-07T02:38:40.145Z,945.47
2017-03-07T02:39:45.845Z,945.51
2017-03-07T02:41:00.388Z,945.49
2017-03-07T02:41:39.225Z,945.47
2017-03-07T02:42:49.407Z,945.45
2017-03-07T02:43:45.330Z,945.45
2017-03-07T02:44:34.150Z,945.43
2017-03-07T02:45:51.119Z,945.46
2017-03-07T02:46:53.799Z,945.52
2017-03-07T02:47:55.122Z,945.50
2017-03-07T02:48:48.935Z,945.52
2017-03-07T02:49:40.380Z,945.43
2017-03-07T02:50:41.063Z,945.46
2017-03-07T02:51:45.423Z,945.39
2017-03-07T02:52:46.192Z,945.45
2017-03-07T02:53:43.747Z,945.44
2017-03-07T02:54:45.341Z,945.45
2017-03-07T02:55:55.985Z,945.46
2017-03-07T02:56:44.464Z,945.52
2017-03-07T02:57:45.250Z,945.54
2017-03-07T02:58:40.014Z,945.57
2017-03-07T02:59:45.084Z,945.59
2017-03-07T03:00:53.546Z,945.59
2017-03-07T03:01:48.237Z,945.61
2017-03-07T03:02:44.938Z,945.56
2017-03-07T03:03:45.587Z,945.59
2017-03-07T03:04:45.586Z,945.60
2017-03-07T03:05:51.054Z,945.60
2017-03-07T03:06:57.914Z,945.60
2017-03-07T03:07:51.684Z,945.64
2017-03-07T03:08:54.415Z,945.67
2017-03-07T03:09:40.463Z,945.68
2017-03-07T03:10:39.705Z,945.64
2017-03-07T03:11:40.815Z,945.68
2017-03-07T03:12:40.686Z,945.73
2017-03-07T03:13:44.919Z,945.73
2017-03-07T03:14:50.722Z,945.69
2017-03-07T03:15:56.896Z,945.73
2017-03-07T03:16:45.423Z,945.75
2017-03-07T03:17:45.853Z,945.82
2017-03-07T03:18:39.790Z,945.84
2017-03-07T03:19:40.117Z,945.84
2017-03-07T03:20:39.730Z,945.83
2017-03-07T03:21:45.180Z,945.83
2017-03-07T03:22:38.634Z,945.83
2017-03-07T03:23:40.275Z,945.82
2017-03-07T03:24:44.805Z,945.88
2017-03-07T03:25:50.380Z,945.90
2017-03-07T03:26:48.918Z,945.90
2017-03-07T03:27:41.101Z,945.92
2017-03-07T03:28:59.323Z,945.93
2017-03-07T03:29:48.916Z,945.93
2017-03-07T03:30:49.486Z,945.97
2017-03-07T03:31:40.263Z,945.97
2017-03-07T03:32:41.835Z,945.99
2017-03-07T03:34:01.074Z,945.95
2017-03-07T03:34:44.605Z,946.01
2017-03-07T03:35:39.566Z,946.00
2017-03-07T03:36:48.863Z,945.99
2017-03-07T03:37:51.089Z,945.98
2017-03-07T03:38:45.609Z,946.05
2017-03-07T03:39:40.438Z,946.05
2017-03-07T03:40:40.457Z,946.00
2017-03-07T03:41:51.130Z,946.09
2017-03-07T03:43:02.330Z,946.05
2017-03-07T03:43:50.648Z,946.12
2017-03-07T03:44:39.621Z,946.08
2017-03-07T03:45:40.175Z,946.14
2017-03-07T03:46:40.691Z,946.11
2017-03-07T03:47:45.395Z,946.16
2017-03-07T03:48:39.543Z,946.09
2017-03-07T03:49:44.678Z,946.17
2017-03-07T03:50:51.020Z,946.18
2017-03-07T03:51:40.471Z,946.11
2017-03-07T03:52:45.366Z,946.16
2017-03-07T03:53:45.007Z,946.14
2017-03-07T03:54:40.018Z,946.17
2017-03-07T03:55:40.870Z,946.17
2017-03-07T03:56:40.966Z,946.21
2017-03-07T03:57:40.728Z,946.26
2017-03-07T03:58:40.620Z,946.21
2017-03-07T03:59:40.158Z,946.27
2017-03-07T04:00:48.899Z,946.22
2017-03-07T04:01:39.691Z,946.22
2017-03-07T04:02:48.983Z,946.25
2017-03-07T04:03:39.872Z,946.28
2017-03-07T04:04:40.798Z,946.24
2017-03-07T04:05:40.490Z,946.26
2017-03-07T04:06:40.001Z,946.28
2017-03-07T04:07:40.920Z,946.32
2017-03-07T04:08:45.891Z,946.30
2017-03-07T04:09:40.108Z,946.35
2017-03-07T04:11:00.976Z,946.31
2017-03-07T04:11:49.832Z,946.28
2017-03-07T04:12:45.201Z,946.31
2017-03-07T04:13:48.472Z,946.31
2017-03-07T04:14:38.451Z,946.31
2017-03-07T04:15:40.420Z,946.31
2017-03-07T04:16:39.847Z,946.35
2017-03-07T04:17:39.502Z,946.35
2017-03-07T04:18:40.306Z,946.36
2017-03-07T04:19:39.686Z,946.39
2017-03-07T04:20:40.620Z,946.37
2017-03-07T04:21:38.151Z,946.40
2017-03-07T04:22:53.699Z,946.39
2017-03-07T04:23:40.240Z,946.38
2017-03-07T04:24:45.101Z,946.40
2017-03-07T04:25:51.255Z,946.42
2017-03-07T04:26:48.775Z,946.48
2017-03-07T04:27:45.436Z,946.50
2017-03-07T04:28:49.486Z,946.47
2017-03-07T04:29:39.753Z,946.51
2017-03-07T04:30:45.523Z,946.59
2017-03-07T04:31:39.943Z,946.65
2017-03-07T04:32:39.933Z,946.58
2017-03-07T04:33:40.323Z,946.61
2017-03-07T04:34:48.861Z,946.64
2017-03-07T04:35:53.417Z,946.64
2017-03-07T04:36:44.112Z,946.67
2017-03-07T04:37:39.900Z,946.71
2017-03-07T04:38:44.760Z,946.72
2017-03-07T04:39:40.514Z,946.73
2017-03-07T04:40:45.277Z,946.81
2017-03-07T04:41:40.461Z,946.74
2017-03-07T04:42:54.105Z,946.77
2017-03-07T04:43:41.107Z,946.76
2017-03-07T04:44:53.538Z,946.80
2017-03-07T04:45:51.317Z,946.81
2017-03-07T04:46:37.946Z,946.89
2017-03-07T04:47:57.563Z,946.89
2017-03-07T04:48:46.540Z,946.92
2017-03-07T04:49:44.646Z,946.89
2017-03-07T04:50:45.198Z,946.92
2017-03-07T04:51:52.278Z,946.94
2017-03-07T04:52:40.152Z,946.96
2017-03-07T04:53:40.343Z,946.99
2017-03-07T04:54:41.049Z,946.99
2017-03-07T04:55:45.356Z,947.02
2017-03-07T04:56:45.052Z,947.06
2017-03-07T04:57:45.731Z,947.07
2017-03-07T04:58:47.866Z,947.08
2017-03-07T04:59:38.536Z,947.12
2017-03-07T05:00:40.609Z,947.08
2017-03-07T05:01:44.828Z,947.13
2017-03-07T05:02:45.277Z,947.12
2017-03-07T05:03:40.156Z,947.10
2017-03-07T05:04:40.216Z,947.14
2017-03-07T05:05:45.566Z,947.14
2017-03-07T05:06:53.562Z,947.11
2017-03-07T05:07:53.658Z,947.17
2017-03-07T05:08:40.487Z,947.14
2017-03-07T05:09:34.594Z,947.21
2017-03-07T05:10:48.918Z,947.13
2017-03-07T05:11:51.094Z,947.19
2017-03-07T05:12:39.304Z,947.24
2017-03-07T05:13:34.351Z,947.24
2017-03-07T05:14:40.802Z,947.24
2017-03-07T05:15:40.404Z,947.29
2017-03-07T05:16:39.755Z,947.25
2017-03-07T05:17:45.505Z,947.27
2017-03-07T05:18:38.492Z,947.28
2017-03-07T05:19:45.035Z,947.33
2017-03-07T05:20:54.870Z,947.31
2017-03-07T05:21:39.971Z,947.36
2017-03-07T05:22:35.628Z,947.37
2017-03-07T05:23:40.322Z,947.34
2017-03-07T05:24:40.121Z,947.41
2017-03-07T05:27:52.887Z,947.42
2017-03-07T05:28:04.515Z,947.40
2017-03-07T05:28:50.915Z,947.43
2017-03-07T05:29:42.351Z,947.46
2017-03-07T05:30:44.737Z,947.45
2017-03-07T05:31:45.477Z,947.41
2017-03-07T05:32:40.998Z,947.48
2017-03-07T05:33:40.509Z,947.47
2017-03-07T05:34:39.260Z,947.45
2017-03-07T05:35:44.626Z,947.45
2017-03-07T05:36:39.650Z,947.45
2017-03-07T05:37:40.514Z,947.45
2017-03-07T05:38:39.875Z,947.49
2017-03-07T05:39:45.106Z,947.48
2017-03-07T05:40:49.746Z,947.44
2017-03-07T05:41:57.318Z,947.51
2017-03-07T05:42:54.773Z,947.54
2017-03-07T05:43:38.921Z,947.55
2017-03-07T05:44:40.242Z,947.55
2017-03-07T05:45:44.848Z,947.54
2017-03-07T05:46:50.342Z,947.57
2017-03-07T05:47:39.603Z,947.57
2017-03-07T05:48:44.832Z,947.60
2017-03-07T05:49:49.566Z,947.58
2017-03-07T05:50:39.765Z,947.63
2017-03-07T05:51:40.069Z,947.68
2017-03-07T05:52:56.861Z,947.65
2017-03-07T05:53:53.440Z,947.63
2017-03-07T05:54:55.795Z,947.67
2017-03-07T05:55:40.578Z,947.65
2017-03-07T05:56:40.371Z,947.68
2017-03-07T05:57:47.176Z,947.66
2017-03-07T05:58:36.358Z,947.72
2017-03-07T05:59:38.825Z,947.67
2017-03-07T06:00:33.558Z,947.67
2017-03-07T06:01:38.878Z,947.63
2017-03-07T06:02:32.386Z,947.68
2017-03-07T06:03:37.911Z,947.71
2017-03-07T06:04:34.622Z,947.67
2017-03-07T06:05:39.367Z,947.70
2017-03-07T06:06:37.979Z,947.69
2017-03-07T06:07:39.411Z,947.74
2017-03-07T06:08:33.756Z,947.69
2017-03-07T06:09:38.936Z,947.70
2017-03-07T06:10:28.933Z,947.61
2017-03-07T06:11:41.157Z,947.72
2017-03-07T06:12:34.072Z,947.75
2017-03-07T06:13:25.613Z,947.74
2017-03-07T06:14:20.744Z,947.76
2017-03-07T06:15:23.704Z,947.72
2017-03-07T06:16:21.381Z,947.75
2017-03-07T06:17:26.253Z,947.82
2017-03-07T06:18:15.904Z,947.86
2017-03-07T06:19:24.197Z,947.89
2017-03-07T06:20:22.561Z,947.84
2017-03-07T06:21:23.124Z,947.83
2017-03-07T06:22:20.863Z,947.86
2017-03-07T06:23:21.147Z,947.86
2017-03-07T06:24:25.081Z,947.90
2017-03-07T06:25:19.966Z,947.92
2017-03-07T06:26:22.999Z,947.94
2017-03-07T06:27:28.466Z,947.94
2017-03-07T06:28:22.461Z,948.01
2017-03-07T06:29:23.509Z,947.96
2017-03-07T06:30:17.893Z,947.96
2017-03-07T06:31:22.286Z,947.98
2017-03-07T06:32:23.123Z,948.04
2017-03-07T06:33:24.228Z,948.07
2017-03-07T06:34:17.541Z,948.07
2017-03-07T06:35:19.548Z,948.12
2017-03-07T06:36:26.104Z,948.08
2017-03-07T06:37:17.097Z,948.15
2017-03-07T06:38:18.993Z,948.20
2017-03-07T06:39:22.648Z,948.22
2017-03-07T06:40:23.174Z,948.20
2017-03-07T06:41:21.824Z,948.23
2017-03-07T06:42:22.016Z,948.27
2017-03-07T06:43:22.571Z,948.31
2017-03-07T06:44:23.373Z,948.27
2017-03-07T06:45:22.652Z,948.31
2017-03-07T06:46:23.487Z,948.34
2017-03-07T06:47:21.551Z,948.35
2017-03-07T06:48:22.421Z,948.35
2017-03-07T06:49:26.461Z,948.34
2017-03-07T06:50:15.416Z,948.37
2017-03-07T06:51:27.686Z,948.40
2017-03-07T06:52:21.490Z,948.37
2017-03-07T06:53:17.918Z,948.45
2017-03-07T06:54:24.854Z,948.46
2017-03-07T06:55:20.732Z,948.51
2017-03-07T06:56:27.711Z,948.55
2017-03-07T06:57:21.050Z,948.58
2017-03-07T06:58:18.568Z,948.58
2017-03-07T06:59:32.598Z,948.64
2017-03-07T07:00:39.985Z,948.66
2017-03-07T07:01:34.136Z,948.62
2017-03-07T07:02:40.293Z,948.60
2017-03-07T07:03:33.701Z,948.64
2017-03-07T07:04:39.388Z,948.71
2017-03-07T07:05:39.310Z,948.68
2017-03-07T07:06:34.711Z,948.73
2017-03-07T07:07:44.231Z,948.74
2017-03-07T07:08:32.548Z,948.78
2017-03-07T07:09:46.083Z,948.74
2017-03-07T07:10:51.037Z,948.79
2017-03-07T07:11:39.228Z,948.85
2017-03-07T07:12:39.064Z,948.87
2017-03-07T07:13:37.218Z,948.84
2017-03-07T07:14:45.721Z,948.90
2017-03-07T07:15:33.542Z,948.79
2017-03-07T07:16:40.694Z,948.86
2017-03-07T07:17:39.840Z,948.79
2017-03-07T07:18:39.346Z,948.95
2017-03-07T07:19:40.340Z,948.86
2017-03-07T07:20:38.223Z,948.90
2017-03-07T07:21:45.307Z,948.86
2017-03-07T07:22:48.271Z,948.89
2017-03-07T07:23:49.071Z,948.90
2017-03-07T07:24:45.289Z,948.79
2017-03-07T07:25:39.103Z,948.86
2017-03-07T07:26:41.106Z,948.89
2017-03-07T07:27:45.901Z,948.92
2017-03-07T07:28:45.766Z,948.90
2017-03-07T07:29:40.511Z,948.92
2017-03-07T07:30:49.661Z,948.90
2017-03-07T07:31:54.553Z,948.96
2017-03-07T07:32:38.878Z,949.01
2017-03-07T07:33:44.179Z,948.95
2017-03-07T07:34:49.945Z,948.97
2017-03-07T07:35:45.505Z,949.10
2017-03-07T07:36:40.707Z,949.02
2017-03-07T07:37:39.652Z,949.02
2017-03-07T07:38:40.723Z,949.05
2017-03-07T07:39:53.398Z,949.06
2017-03-07T07:41:03.616Z,949.08
2017-03-07T07:41:47.250Z,949.07
2017-03-07T07:42:39.965Z,949.14
2017-03-07T07:43:34.494Z,949.14
2017-03-07T07:44:34.171Z,949.14
2017-03-07T07:45:33.658Z,949.18
2017-03-07T07:46:40.630Z,949.22
2017-03-07T07:47:45.775Z,949.23
2017-03-07T07:48:46.049Z,949.26
2017-03-07T07:49:50.481Z,949.25
2017-03-07T07:50:48.704Z,949.27
2017-03-07T07:51:40.707Z,949.24
2017-03-07T07:52:50.312Z,949.24
2017-03-07T07:53:40.187Z,949.28
2017-03-07T07:54:39.842Z,949.31
2017-03-07T07:55:37.741Z,949.28
2017-03-07T07:56:45.285Z,949.26
2017-03-07T07:57:34.701Z,949.33
2017-03-07T07:58:52.695Z,949.33
2017-03-07T07:59:38.846Z,949.32
2017-03-07T08:00:40.050Z,949.33
2017-03-07T08:01:40.918Z,949.36
2017-03-07T08:02:35.280Z,949.36
2017-03-07T08:03:39.764Z,949.37
2017-03-07T08:04:42.305Z,949.35
2017-03-07T08:05:44.633Z,949.36
2017-03-07T08:06:55.037Z,949.34
2017-03-07T08:07:39.907Z,949.39
2017-03-07T08:08:44.666Z,949.37
2017-03-07T08:09:51.746Z,949.43
2017-03-07T08:10:48.078Z,949.40
2017-03-07T08:11:39.853Z,949.43
2017-03-07T08:12:33.772Z,949.39
2017-03-07T08:13:37.634Z,949.44
2017-03-07T08:14:40.100Z,949.40
2017-03-07T08:15:49.583Z,949.43
2017-03-07T08:16:40.272Z,949.43
2017-03-07T08:17:37.076Z,949.40
2017-03-07T08:18:40.000Z,949.41
2017-03-07T08:19:43.531Z,949.44
2017-03-07T08:20:45.346Z,949.43
2017-03-07T08:21:39.987Z,949.44
2017-03-07T08:22:46.665Z,949.48
2017-03-07T08:23:47.652Z,949.43
2017-03-07T08:24:40.446Z,949.47
2017-03-07T08:25:50.306Z,949.47
2017-03-07T08:26:50.087Z,949.48
2017-03-07T08:27:51.181Z,949.47
2017-03-07T08:28:37.921Z,949.49
2017-03-07T08:29:45.870Z,949.43
2017-03-07T08:30:39.475Z,949.49
2017-03-07T08:31:44.949Z,949.53
2017-03-07T08:32:45.117Z,949.43
2017-03-07T08:33:40.820Z,949.42
2017-03-07T08:34:51.779Z,949.50
2017-03-07T08:35:58.537Z,949.54
2017-03-07T08:36:48.082Z,949.52
2017-03-07T08:37:45.535Z,949.51
2017-03-07T08:38:43.208Z,949.53
2017-03-07T08:39:53.551Z,949.60
2017-03-07T08:40:38.096Z,949.57
2017-03-07T08:41:40.080Z,949.64
2017-03-07T08:42:45.820Z,949.70
2017-03-07T08:43:45.068Z,949.76
2017-03-07T08:44:45.171Z,949.75
2017-03-07T08:45:56.812Z,949.76
2017-03-07T08:46:47.822Z,949.85
2017-03-07T08:47:39.773Z,949.85
2017-03-07T08:48:50.301Z,949.87
2017-03-07T08:49:45.793Z,949.85
2017-03-07T08:50:56.072Z,949.89
2017-03-07T08:53:03.230Z,949.97
2017-03-07T08:53:41.643Z,949.96
2017-03-07T08:54:44.832Z,949.95
2017-03-07T08:55:58.774Z,949.94
2017-03-07T08:56:43.694Z,949.90
2017-03-07T08:57:45.528Z,949.94
2017-03-07T08:58:40.494Z,949.95
2017-03-07T08:59:39.115Z,949.94
2017-03-07T09:00:40.280Z,950.01
2017-03-07T09:01:45.025Z,949.98
2017-03-07T09:02:52.498Z,949.99
2017-03-07T09:03:38.528Z,950.07
2017-03-07T09:04:44.775Z,950.04
2017-03-07T09:05:39.835Z,950.05
2017-03-07T09:06:35.195Z,950.08
2017-03-07T09:07:55.414Z,950.08
2017-03-07T09:08:45.480Z,950.05
2017-03-07T09:09:35.289Z,950.06
2017-03-07T09:10:40.153Z,950.09
2017-03-07T09:11:51.971Z,950.06
2017-03-07T09:12:47.206Z,950.10
2017-03-07T09:13:36.391Z,950.09
2017-03-07T09:14:54.740Z,950.09
2017-03-07T09:15:48.487Z,950.13
2017-03-07T09:16:48.256Z,950.09
2017-03-07T09:17:44.915Z,950.13
2017-03-07T09:18:40.279Z,950.10
2017-03-07T09:19:39.712Z,950.12
2017-03-07T09:20:40.458Z,950.18
2017-03-07T09:21:40.135Z,950.15
2017-03-07T09:22:55.583Z,950.15
2017-03-07T09:24:00.642Z,950.16
2017-03-07T09:24:48.823Z,950.16
2017-03-07T09:25:47.514Z,950.18
2017-03-07T09:26:53.295Z,950.20
2017-03-07T09:27:49.608Z,950.21
2017-03-07T09:28:39.639Z,950.27
2017-03-07T09:29:56.611Z,950.24
2017-03-07T09:30:41.130Z,950.24
2017-03-07T09:31:49.482Z,950.24
2017-03-07T09:32:34.252Z,950.29
2017-03-07T09:33:40.201Z,950.30
2017-03-07T09:34:46.629Z,950.34
2017-03-07T09:35:38.952Z,950.35
2017-03-07T09:36:45.510Z,950.38
2017-03-07T09:37:44.481Z,950.36
2017-03-07T09:38:47.852Z,950.32
2017-03-07T09:39:44.547Z,950.35
2017-03-07T09:40:40.384Z,950.35
2017-03-07T09:41:45.574Z,950.34
2017-03-07T09:42:40.024Z,950.31
2017-03-07T09:43:41.334Z,950.32
2017-03-07T09:44:40.319Z,950.36
2017-03-07T09:45:40.454Z,950.42
2017-03-07T09:46:38.334Z,950.40
2017-03-07T09:47:45.618Z,950.42
2017-03-07T09:48:52.122Z,950.43
2017-03-07T09:49:44.247Z,950.48
2017-03-07T09:50:45.568Z,950.46
2017-03-07T09:51:47.951Z,950.48
2017-03-07T09:52:39.917Z,950.53
2017-03-07T09:53:55.312Z,950.58
2017-03-07T09:54:49.227Z,950.57
2017-03-07T09:55:49.155Z,950.62
2017-03-07T09:56:39.533Z,950.61
2017-03-07T09:57:40.039Z,950.63
2017-03-07T09:58:44.734Z,950.64
2017-03-07T09:59:40.721Z,950.63
2017-03-07T10:00:54.294Z,950.63
2017-03-07T10:01:32.845Z,950.68
2017-03-07T10:02:43.569Z,950.70
2017-03-07T10:03:40.195Z,950.69
2017-03-07T10:04:41.689Z,950.67
2017-03-07T10:05:44.415Z,950.67
2017-03-07T10:06:39.743Z,950.62
2017-03-07T10:07:39.873Z,950.66
2017-03-07T10:08:45.420Z,950.64
2017-03-07T10:09:44.276Z,950.66
2017-03-07T10:10:45.367Z,950.67
2017-03-07T10:11:41.306Z,950.67
2017-03-07T10:12:38.363Z,950.69
2017-03-07T10:13:39.769Z,950.70
2017-03-07T10:14:44.816Z,950.73
2017-03-07T10:15:40.159Z,950.76
2017-03-07T10:16:33.252Z,950.72
2017-03-07T10:17:41.112Z,950.76
2017-03-07T10:18:52.591Z,950.78
2017-03-07T10:19:48.848Z,950.78
2017-03-07T10:20:45.366Z,950.83
2017-03-07T10:21:38.490Z,950.78
2017-03-07T10:22:49.843Z,950.80
2017-03-07T10:23:34.604Z,950.87
2017-03-07T10:24:39.862Z,950.88
2017-03-07T10:25:49.856Z,950.85
2017-03-07T10:26:40.593Z,950.80
2017-03-07T10:27:49.931Z,950.82
2017-03-07T10:28:51.273Z,950.84
2017-03-07T10:29:40.351Z,950.87
2017-03-07T10:30:34.714Z,950.84
2017-03-07T10:31:40.734Z,950.84
2017-03-07T10:32:39.606Z,950.81
2017-03-07T10:33:47.401Z,950.83
2017-03-07T10:34:44.220Z,950.83
2017-03-07T10:35:32.999Z,950.84
2017-03-07T10:36:40.855Z,950.93
2017-03-07T10:37:40.674Z,950.86
2017-03-07T10:38:43.720Z,950.88
2017-03-07T10:39:45.539Z,950.84
2017-03-07T10:40:49.962Z,950.86
2017-03-07T10:41:42.948Z,950.84
2017-03-07T10:42:42.425Z,950.89
2017-03-07T10:43:50.242Z,950.90
2017-03-07T10:44:40.003Z,950.88
2017-03-07T10:45:38.358Z,950.86
2017-03-07T10:46:43.900Z,950.85
2017-03-07T10:47:51.070Z,950.81
2017-03-07T10:48:38.609Z,950.85
2017-03-07T10:49:40.732Z,950.78
2017-03-07T10:50:40.187Z,950.78
2017-03-07T10:51:52.094Z,950.77
2017-03-07T10:52:41.268Z,950.76
2017-03-07T10:53:40.609Z,950.75
2017-03-07T10:54:53.659Z,950.74
2017-03-07T10:55:34.728Z,950.70
2017-03-07T10:56:39.716Z,950.73
2017-03-07T10:57:40.651Z,950.75
2017-03-07T10:58:35.843Z,950.67
2017-03-07T10:59:39.756Z,950.71
2017-03-07T11:00:55.044Z,950.71
2017-03-07T11:01:34.499Z,950.73
2017-03-07T11:02:49.807Z,950.74
2017-03-07T11:03:40.671Z,950.69
2017-03-07T11:04:40.075Z,950.72
2017-03-07T11:05:45.877Z,950.70
2017-03-07T11:06:49.243Z,950.73
2017-03-07T11:07:39.531Z,950.73
2017-03-07T11:08:40.410Z,950.74
2017-03-07T11:09:38.782Z,950.75
2017-03-07T11:10:49.008Z,950.75
2017-03-07T11:11:55.212Z,950.73
2017-03-07T11:12:54.152Z,950.74
2017-03-07T11:13:38.100Z,950.81
2017-03-07T11:14:40.261Z,950.77
2017-03-07T11:15:53.824Z,950.75
2017-03-07T11:16:53.946Z,950.80
2017-03-07T11:17:38.482Z,950.77
2017-03-07T11:18:45.062Z,950.83
2017-03-07T11:19:38.895Z,950.79
2017-03-07T11:20:55.490Z,950.80
2017-03-07T11:21:34.244Z,950.83
2017-03-07T11:22:39.774Z,950.83
2017-03-07T11:23:40.553Z,950.83
2017-03-07T11:24:48.663Z,950.79
2017-03-07T11:25:50.142Z,950.91
2017-03-07T11:26:48.722Z,950.83
2017-03-07T11:27:40.414Z,950.89
2017-03-07T11:29:02.441Z,950.87
2017-03-07T11:29:45.924Z,950.86
2017-03-07T11:30:43.494Z,950.92
2017-03-07T11:31:39.631Z,950.86
2017-03-07T11:32:53.329Z,950.87
2017-03-07T11:33:40.383Z,950.91
2017-03-07T11:34:45.125Z,950.89
2017-03-07T11:36:01.186Z,950.90
2017-03-07T11:36:52.447Z,950.85
2017-03-07T11:37:39.896Z,950.86
2017-03-07T11:38:45.801Z,950.85
2017-03-07T11:39:59.295Z,950.91
2017-03-07T11:40:54.794Z,950.84
2017-03-07T11:41:38.899Z,950.83
2017-03-07T11:42:49.631Z,950.86
2017-03-07T11:43:38.836Z,950.83
2017-03-07T11:44:45.859Z,950.87
2017-03-07T11:45:41.077Z,950.90
2017-03-07T11:46:45.839Z,950.91
2017-03-07T11:47:49.320Z,950.88
2017-03-07T11:48:51.660Z,950.84
2017-03-07T11:49:50.126Z,950.90
2017-03-07T11:51:01.845Z,950.85
2017-03-07T11:51:45.281Z,950.90
2017-03-07T11:52:38.328Z,950.90
2017-03-07T11:53:34.712Z,950.89
2017-03-07T11:54:40.124Z,950.89
2017-03-07T11:55:43.356Z,950.92
2017-03-07T11:56:48.973Z,950.93
2017-03-07T11:57:40.937Z,950.88
2017-03-07T11:58:55.787Z,950.96
2017-03-07T11:59:50.111Z,950.92
2017-03-07T12:00:48.604Z,950.97
2017-03-07T12:01:39.261Z,950.94
2017-03-07T12:02:54.519Z,950.95
2017-03-07T12:03:53.088Z,950.93
2017-03-07T12:04:48.563Z,950.91
2017-03-07T12:05:40.372Z,950.90
2017-03-07T12:06:40.403Z,950.88
2017-03-07T12:07:53.735Z,950.91
2017-03-07T12:08:48.196Z,950.92
2017-03-07T12:09:38.700Z,950.94
2017-03-07T12:10:50.861Z,950.93
2017-03-07T12:11:54.070Z,950.86
2017-03-07T12:12:40.857Z,950.90
2017-03-07T12:13:35.600Z,950.87
2017-03-07T12:14:54.801Z,950.88
2017-03-07T12:15:33.347Z,950.91
2017-03-07T12:16:40.663Z,950.88
2017-03-07T12:17:52.583Z,950.90
2017-03-07T12:18:38.901Z,950.93
2017-03-07T12:19:40.607Z,950.95
2017-03-07T12:20:49.803Z,950.89
2017-03-07T12:21:40.008Z,950.87
2017-03-07T12:22:45.852Z,950.86
2017-03-07T12:23:40.256Z,950.87
2017-03-07T12:24:51.107Z,950.89
2017-03-07T12:25:49.651Z,950.86
2017-03-07T12:26:49.336Z,950.82
2017-03-07T12:27:54.880Z,950.80
2017-03-07T12:28:48.877Z,950.80
2017-03-07T12:29:40.667Z,950.70
2017-03-07T12:30:40.639Z,950.74